Time;durP1;ratioP1;P1;durP2;ratioP2;P2;SDS_P1;SDS_P2;PMS_P1;PMS_P2;Temp;Humidity;BMP_temperature;BMP_pressure;BME280_temperature;BME280_humidity;BME280_pressure;Samples;Min_cycle;Max_cycle;Signal;HPM_P1;HPM_P2
2022/10/18 00:01:48;;;;;;;29.80;22.00;;;;;;;13.82;100.00;102453.06;5030386;28;20350;-61
2022/10/18 00:04:14;;;;;;;28.35;21.33;;;;;;;13.81;100.00;102440.28;5030771;28;20018;-61
2022/10/18 00:06:39;;;;;;;29.75;21.80;;;;;;;13.82;100.00;102447.50;5030461;28;20334;-62
2022/10/18 00:09:05;;;;;;;28.58;20.90;;;;;;;13.82;100.00;102446.69;5030713;28;20049;-63
2022/10/18 00:11:30;;;;;;;29.35;21.83;;;;;;;13.82;100.00;102443.91;5031311;28;20449;-62
2022/10/18 00:13:57;;;;;;;28.92;21.55;;;;;;;13.82;100.00;102443.91;5031141;28;20021;-61
2022/10/18 00:16:22;;;;;;;31.63;21.60;;;;;;;13.81;100.00;102443.06;5031001;28;20092;-62
2022/10/18 00:18:47;;;;;;;30.42;21.58;;;;;;;13.81;100.00;102434.72;5030517;28;20029;-61
2022/10/18 00:21:18;;;;;;;29.85;22.38;;;;;;;13.81;100.00;102429.16;5030288;28;20034;-61
2022/10/18 00:23:45;;;;;;;28.75;20.95;;;;;;;13.76;100.00;102420.84;5030594;28;20542;-61
2022/10/18 00:26:15;;;;;;;28.42;20.80;;;;;;;13.82;100.00;102430.00;5014151;28;20392;-61
2022/10/18 00:28:41;;;;;;;28.27;21.80;;;;;;;13.80;100.00;102424.72;5034090;28;20089;-62
2022/10/18 00:31:12;;;;;;;29.20;20.83;;;;;;;13.79;100.00;102431.38;5034428;28;20029;-62
2022/10/18 00:33:38;;;;;;;29.15;21.50;;;;;;;13.78;100.00;102432.53;5034123;28;20041;-62
2022/10/18 00:36:03;;;;;;;27.17;21.25;;;;;;;13.79;100.00;102438.91;5016041;28;20026;-62
2022/10/18 00:38:28;;;;;;;28.42;21.63;;;;;;;13.80;100.00;102438.63;5034288;28;20029;-61
2022/10/18 00:40:54;;;;;;;27.48;22.08;;;;;;;13.79;100.00;102436.94;5033884;28;20021;-61
2022/10/18 00:43:19;;;;;;;27.65;21.60;;;;;;;13.78;100.00;102438.09;5033625;28;20033;-62
2022/10/18 00:45:44;;;;;;;30.30;22.58;;;;;;;13.78;100.00;102438.09;5033781;28;20116;-62
2022/10/18 00:48:13;;;;;;;28.08;20.85;;;;;;;13.75;100.00;102429.47;5033462;28;20361;-62
2022/10/18 00:50:40;;;;;;;27.98;21.25;;;;;;;13.72;100.00;102431.72;5034082;28;20368;-62
2022/10/18 00:53:11;;;;;;;28.90;21.52;;;;;;;13.75;100.00;102433.09;5033972;28;20059;-62
2022/10/18 00:55:37;;;;;;;27.92;21.00;;;;;;;13.77;100.00;102438.38;5033728;28;20026;-62
2022/10/18 00:58:03;;;;;;;29.60;21.27;;;;;;;13.76;100.00;102440.34;5033940;28;20105;-62
2022/10/18 01:00:28;;;;;;;27.98;21.13;;;;;;;13.76;100.00;102440.34;5033907;28;20321;-62
2022/10/18 01:02:53;;;;;;;30.60;20.83;;;;;;;13.75;100.00;102447.00;5032665;28;20060;-62
2022/10/18 01:05:19;;;;;;;27.27;21.00;;;;;;;13.76;100.00;102445.88;5033163;28;20029;-62
2022/10/18 01:08:05;;;;;;;28.80;22.17;;;;;;;13.72;100.00;102445.63;5033324;28;20037;-62
2022/10/18 01:10:46;;;;;;;26.63;20.13;;;;;;;13.76;100.00;102462.59;5033529;28;20053;-61
2022/10/18 01:13:19;;;;;;;28.13;21.55;;;;;;;13.78;100.00;102459.50;5033509;28;20044;-62
2022/10/18 01:16:12;;;;;;;28.08;21.52;;;;;;;13.78;100.00;102456.72;5033731;28;20029;-62
2022/10/18 01:19:02;;;;;;;28.45;22.33;;;;;;;13.79;100.00;102455.59;5033031;28;20017;-61
2022/10/18 01:21:34;;;;;;;28.15;20.52;;;;;;;13.77;100.00;102460.63;5033653;28;20057;-62
2022/10/18 01:24:16;;;;;;;33.58;21.73;;;;;;;13.75;100.00;102452.56;5033626;28;20071;-62
2022/10/18 01:27:01;;;;;;;28.30;20.52;;;;;;;13.73;100.00;102450.09;5033937;28;20029;-62
2022/10/18 01:29:59;;;;;;;27.80;20.92;;;;;;;13.71;100.00;102457.88;5033865;28;20053;-62
2022/10/18 01:32:27;;;;;;;28.67;21.05;;;;;;;13.65;100.00;102456.22;5033430;28;20499;-61
2022/10/18 01:35:00;;;;;;;27.67;21.98;;;;;;;13.67;100.00;102459.56;5033246;28;20496;-62
2022/10/18 01:37:28;;;;;;;29.85;22.20;;;;;;;13.62;100.00;102444.84;5032276;28;20090;-61
2022/10/18 01:39:56;;;;;;;27.00;20.35;;;;;;;13.68;100.00;102454.84;5033278;28;20022;-61
2022/10/18 01:42:23;;;;;;;32.03;21.25;;;;;;;13.67;100.00;102453.19;5015396;28;20032;-62
2022/10/18 01:44:51;;;;;;;28.42;21.33;;;;;;;13.66;100.00;102449.56;5033327;28;20480;-64
2022/10/18 01:47:17;;;;;;;28.88;20.92;;;;;;;13.66;100.00;102455.13;5032891;28;20036;-62
2022/10/18 01:49:42;;;;;;;28.05;21.10;;;;;;;13.65;100.00;102452.63;5032995;28;20018;-62
2022/10/18 01:52:15;;;;;;;26.75;20.88;;;;;;;13.65;100.00;102463.75;5033161;28;20033;-65
2022/10/18 01:54:47;;;;;;;27.30;20.93;;;;;;;13.63;100.00;102466.00;5032935;28;20029;-62
2022/10/18 01:57:40;;;;;;;27.90;20.92;;;;;;;13.64;100.00;102449.03;5033283;28;20056;-63
2022/10/18 02:00:15;;;;;;;26.90;20.65;;;;;;;13.65;100.00;102455.41;5032610;28;20055;-63
2022/10/18 02:02:55;;;;;;;27.77;20.75;;;;;;;13.64;100.00;102456.53;5032799;28;20029;-63
2022/10/18 02:06:04;;;;;;;28.02;21.00;;;;;;;13.65;100.00;102459.00;5033082;28;20087;-63
2022/10/18 02:08:36;;;;;;;27.10;21.38;;;;;;;13.62;100.00;102467.94;5009611;28;20504;-62
2022/10/18 02:11:05;;;;;;;26.77;20.77;;;;;;;13.61;100.00;102460.72;5015021;28;20105;-63
2022/10/18 02:13:56;;;;;;;27.88;21.05;;;;;;;13.64;100.00;102462.94;5032324;28;20028;-62
2022/10/18 02:16:24;;;;;;;27.27;21.08;;;;;;;13.60;100.00;102459.06;5032265;28;20030;-65
2022/10/18 02:19:14;;;;;;;28.75;19.83;;;;;;;13.60;100.00;102459.06;5032654;28;20041;-62
2022/10/18 02:21:42;;;;;;;26.48;20.00;;;;;;;13.55;100.00;102442.41;5032654;28;20021;-63
2022/10/18 02:24:10;;;;;;;27.55;21.02;;;;;;;13.52;100.00;102452.16;5032567;28;20452;-63
2022/10/18 02:26:35;;;;;;;28.35;20.55;;;;;;;13.51;100.00;102450.47;5032722;28;20144;-64
2022/10/18 02:29:00;;;;;;;29.27;21.42;;;;;;;13.51;100.00;102450.47;5032513;28;20018;-63
2022/10/18 02:31:41;;;;;;;28.25;21.73;;;;;;;13.49;100.00;102449.13;5032408;28;20120;-63
2022/10/18 02:34:22;;;;;;;28.80;21.50;;;;;;;13.48;100.00;102451.06;5032466;28;20026;-62
2022/10/18 02:37:00;;;;;;;31.08;21.45;;;;;;;13.50;100.00;102454.41;5032409;28;20075;-63
2022/10/18 02:39:35;;;;;;;30.10;22.40;;;;;;;13.50;100.00;102459.13;5032495;28;20025;-63
2022/10/18 02:42:05;;;;;;;27.65;21.50;;;;;;;13.48;100.00;102458.56;5031484;28;20033;-62
2022/10/18 02:44:34;;;;;;;26.85;21.17;;;;;;;13.48;100.00;102464.13;5032097;28;20491;-63
2022/10/18 02:47:00;;;;;;;29.65;21.23;;;;;;;13.45;100.00;102459.16;5031979;28;20196;-62
2022/10/18 02:49:25;;;;;;;30.70;22.23;;;;;;;13.45;100.00;102459.97;5031817;28;20110;-62
2022/10/18 02:51:51;;;;;;;29.42;22.00;;;;;;;13.44;100.00;102457.50;5031843;28;20116;-63
2022/10/18 02:54:16;;;;;;;30.23;21.08;;;;;;;13.42;100.00;102454.97;5032006;28;20033;-62
2022/10/18 02:56:41;;;;;;;28.70;21.60;;;;;;;13.42;100.00;102466.09;5031775;28;20040;-62
2022/10/18 02:59:07;;;;;;;28.40;21.73;;;;;;;13.43;100.00;102470.53;5014110;28;20111;-62
2022/10/18 03:01:33;;;;;;;28.67;21.75;;;;;;;13.45;100.00;102471.09;5032255;28;20044;-61
2022/10/18 03:03:58;;;;;;;28.95;22.05;;;;;;;13.45;100.00;102462.75;5031699;28;20138;-62
2022/10/18 03:06:24;;;;;;;30.73;22.40;;;;;;;13.46;100.00;102467.19;5031627;28;20156;-62
2022/10/18 03:08:49;;;;;;;29.83;22.92;;;;;;;13.49;100.00;102476.91;5031692;28;20147;-62
2022/10/18 03:11:14;;;;;;;29.33;21.80;;;;;;;13.51;100.00;102480.25;5031979;28;20437;-62
2022/10/18 03:13:40;;;;;;;28.45;21.88;;;;;;;13.50;100.00;102476.66;5031868;28;20030;-62
2022/10/18 03:16:05;;;;;;;30.27;21.38;;;;;;;13.52;100.00;102473.56;5031467;28;20465;-62
2022/10/18 03:18:30;;;;;;;30.33;22.27;;;;;;;13.53;100.00;102480.78;5031127;28;20113;-62
2022/10/18 03:20:55;;;;;;;29.92;22.67;;;;;;;13.52;100.00;102471.59;5030798;28;20079;-62
2022/10/18 03:23:21;;;;;;;29.98;23.48;;;;;;;13.53;100.00;102475.22;5031077;28;20457;-62
2022/10/18 03:25:46;;;;;;;30.90;23.35;;;;;;;13.52;100.00;102462.44;5030906;28;20072;-63
2022/10/18 03:28:11;;;;;;;29.80;22.88;;;;;;;13.52;100.00;102468.00;5030968;28;20032;-63
2022/10/18 03:30:37;;;;;;;30.38;23.05;;;;;;;13.52;100.00;102474.38;5030987;28;20052;-63
2022/10/18 03:33:04;;;;;;;30.20;24.35;;;;;;;13.54;100.00;102476.91;5030882;28;20031;-63
2022/10/18 03:35:30;;;;;;;31.95;23.52;;;;;;;13.55;100.00;102473.00;5030978;28;20453;-63
2022/10/18 03:37:55;;;;;;;31.25;23.80;;;;;;;13.55;100.00;102478.56;5030975;28;20029;-62
2022/10/18 03:40:20;;;;;;;32.38;23.55;;;;;;;13.55;100.00;102481.34;5030950;28;20053;-64
2022/10/18 03:42:45;;;;;;;36.75;28.00;;;;;;;13.61;100.00;102477.41;5030908;28;20169;-62
2022/10/18 03:45:11;;;;;;;38.30;29.65;;;;;;;13.60;100.00;102470.19;5030739;28;20030;-62
2022/10/18 03:47:36;;;;;;;38.97;30.00;;;;;;;13.65;100.00;102477.66;5030674;28;20029;-63
2022/10/18 03:50:02;;;;;;;40.50;30.17;;;;;;;13.67;100.00;102475.44;5012917;28;20064;-62
2022/10/18 03:52:27;;;;;;;39.47;29.88;;;;;;;13.68;100.00;102483.47;5031066;28;20330;-63
2022/10/18 03:54:52;;;;;;;38.65;28.17;;;;;;;13.66;100.00;102474.59;5030797;28;20052;-63
2022/10/18 03:57:17;;;;;;;35.63;27.90;;;;;;;13.62;100.00;102470.72;5030787;28;20022;-63
2022/10/18 03:59:43;;;;;;;38.40;28.95;;;;;;;13.63;100.00;102466.84;5030925;28;20055;-63
2022/10/18 04:02:08;;;;;;;39.95;29.08;;;;;;;13.60;100.00;102458.25;5034045;28;20036;-63
2022/10/18 04:04:33;;;;;;;41.67;30.48;;;;;;;13.63;100.00;102452.09;5034723;28;20033;-63
2022/10/18 04:06:59;;;;;;;37.67;28.23;;;;;;;13.60;100.00;102458.25;5035043;28;20124;-62
2022/10/18 04:09:24;;;;;;;42.20;31.23;;;;;;;13.60;100.00;102456.28;5034353;28;20046;-62
2022/10/18 04:11:50;;;;;;;39.83;29.40;;;;;;;13.58;100.00;102461.28;5035339;28;20029;-62
2022/10/18 04:14:15;;;;;;;39.60;29.40;;;;;;;13.57;100.00;102462.41;5034838;28;20032;-63
2022/10/18 04:16:41;;;;;;;53.33;34.08;;;;;;;13.60;100.00;102459.06;5034955;28;20025;-63
2022/10/18 04:19:06;;;;;;;47.45;34.47;;;;;;;13.57;100.00;102454.06;5050106;28;20029;-62
2022/10/18 04:21:31;;;;;;;48.42;32.55;;;;;;;13.56;100.00;102456.03;5053594;28;20063;-62
2022/10/18 04:23:57;;;;;;;69.35;36.60;;;;;;;13.57;100.00;102457.69;5053861;28;20029;-62
2022/10/18 04:26:22;;;;;;;52.67;36.13;;;;;;;13.59;100.00;102464.91;5054088;28;20318;-61
2022/10/18 04:28:47;;;;;;;52.97;36.63;;;;;;;13.59;100.00;102468.50;5053977;28;20029;-62
2022/10/18 04:31:12;;;;;;;63.15;37.53;;;;;;;13.57;100.00;102466.03;5054050;28;20447;-61
2022/10/18 04:33:38;;;;;;;70.00;36.92;;;;;;;13.55;100.00;102468.25;5054391;28;20075;-62
2022/10/18 04:36:03;;;;;;;73.57;36.72;;;;;;;13.45;100.00;102465.53;5053989;28;20387;-62
2022/10/18 04:38:28;;;;;;;66.53;36.65;;;;;;;13.51;100.00;102477.47;5054413;28;20021;-62
2022/10/18 04:40:54;;;;;;;59.63;36.00;;;;;;;13.53;100.00;102475.22;5053875;28;20021;-63
2022/10/18 04:43:19;;;;;;;97.88;38.85;;;;;;;13.49;100.00;102477.75;5054015;28;20420;-61
2022/10/18 04:45:45;;;;;;;79.13;37.92;;;;;;;13.42;100.00;102463.31;5054161;28;20037;-62
2022/10/18 04:48:10;;;;;;;75.30;38.45;;;;;;;13.40;100.00;102476.69;5054005;28;20051;-62
2022/10/18 04:50:36;;;;;;;55.45;35.08;;;;;;;13.47;100.00;102481.91;5036123;28;20514;-61
2022/10/18 04:53:01;;;;;;;61.42;36.33;;;;;;;13.46;100.00;102472.75;5053499;28;20033;-62
2022/10/18 04:55:26;;;;;;;57.47;36.60;;;;;;;13.46;100.00;102467.19;5053757;28;20409;-62
2022/10/18 04:57:52;;;;;;;54.13;35.45;;;;;;;13.48;100.00;102470.53;5053572;28;20036;-62
2022/10/18 05:00:17;;;;;;;89.18;37.83;;;;;;;13.40;100.00;102465.56;5053767;28;20095;-62
2022/10/18 05:02:42;;;;;;;76.18;36.10;;;;;;;13.38;100.00;102467.78;5053625;28;20029;-62
2022/10/18 05:05:08;;;;;;;66.63;36.00;;;;;;;13.35;100.00;102473.91;5053179;28;20107;-62
2022/10/18 05:07:33;;;;;;;60.83;34.40;;;;;;;13.37;100.00;102474.44;5053643;28;20216;-62
2022/10/18 05:09:58;;;;;;;64.25;35.58;;;;;;;13.35;100.00;102479.44;5053603;28;20440;-62
2022/10/18 05:12:23;;;;;;;67.15;36.78;;;;;;;13.31;100.00;102483.94;5052446;28;20017;-61
2022/10/18 05:14:49;;;;;;;54.90;35.55;;;;;;;13.31;100.00;102487.53;5053523;28;20032;-63
2022/10/18 05:17:14;;;;;;;56.03;35.50;;;;;;;13.27;100.00;102487.28;5053196;28;20043;-63
2022/10/18 05:19:39;;;;;;;101.55;39.28;;;;;;;13.25;100.00;102491.47;5053048;28;20033;-61
2022/10/18 05:22:04;;;;;;;95.78;38.58;;;;;;;13.23;100.00;102497.28;5052908;28;20104;-63
2022/10/18 05:24:30;;;;;;;77.20;37.28;;;;;;;13.19;100.00;102493.44;5053256;28;20024;-62
2022/10/18 05:26:56;;;;;;;93.32;40.53;;;;;;;13.16;100.00;102498.72;5053082;28;20162;-63
2022/10/18 05:29:21;;;;;;;96.65;38.13;;;;;;;13.13;100.00;102497.31;5052950;28;20525;-62
2022/10/18 05:31:47;;;;;;;59.10;37.00;;;;;;;13.16;100.00;102493.16;5052879;28;20028;-64
2022/10/18 05:34:12;;;;;;;89.35;39.30;;;;;;;13.12;100.00;102487.34;5053573;28;20475;-62
2022/10/18 05:36:38;;;;;;;92.65;39.65;;;;;;;13.08;100.00;102497.34;5053393;28;20112;-62
2022/10/18 05:39:04;;;;;;;95.28;36.35;;;;;;;13.09;100.00;102510.13;5053462;28;20029;-63
2022/10/18 05:41:29;;;;;;;94.85;37.08;;;;;;;13.05;100.00;102509.88;5053675;28;20074;-61
2022/10/18 05:43:55;;;;;;;66.45;35.58;;;;;;;13.08;100.00;102511.25;5053357;28;20032;-63
2022/10/18 05:46:20;;;;;;;78.68;36.63;;;;;;;13.06;100.00;102513.47;5053260;28;20056;-62
2022/10/18 05:48:48;;;;;;;69.45;34.67;;;;;;;13.07;100.00;102504.00;5052979;28;20111;-62
2022/10/18 05:51:14;;;;;;;74.13;34.70;;;;;;;13.06;100.00;102500.41;5052880;28;20512;-62
2022/10/18 05:53:39;;;;;;;72.88;35.53;;;;;;;13.03;100.00;102505.72;5053067;28;20103;-62
2022/10/18 05:56:05;;;;;;;100.32;38.97;;;;;;;13.00;100.00;102495.97;5034428;28;20017;-62
2022/10/18 05:58:31;;;;;;;106.72;38.10;;;;;;;12.95;100.00;102501.56;5048398;28;20025;-62
2022/10/18 06:01:00;;;;;;;108.80;36.30;;;;;;;12.93;100.00;102509.34;5053128;28;20049;-63
2022/10/18 06:03:26;;;;;;;68.57;34.60;;;;;;;12.92;100.00;102514.06;5052840;28;20024;-62
2022/10/18 06:05:53;;;;;;;83.10;36.00;;;;;;;12.88;100.00;102512.13;5053003;28;20036;-62
2022/10/18 06:08:18;;;;;;;53.20;33.20;;;;;;;12.88;100.00;102521.28;5051987;28;20600;-63
2022/10/18 06:10:43;;;;;;;63.65;34.35;;;;;;;12.84;100.00;102520.19;5052420;28;20049;-63
2022/10/18 06:13:08;;;;;;;74.80;34.90;;;;;;;12.82;100.00;102527.97;5052298;28;20504;-62
2022/10/18 06:15:34;;;;;;;61.92;33.85;;;;;;;12.74;100.00;102509.09;5052102;28;20021;-63
2022/10/18 06:17:59;;;;;;;58.20;34.15;;;;;;;12.78;100.00;102524.94;5053025;28;20178;-63
2022/10/18 06:20:24;;;;;;;73.55;34.67;;;;;;;12.75;100.00;102519.09;5052226;28;20037;-62
2022/10/18 06:22:52;;;;;;;73.78;35.20;;;;;;;12.76;100.00;102524.38;5052599;28;20424;-62
2022/10/18 06:25:18;;;;;;;56.88;33.75;;;;;;;12.76;100.00;102529.94;5052012;28;20114;-62
2022/10/18 06:27:43;;;;;;;53.80;34.00;;;;;;;12.78;100.00;102529.63;5052411;28;20453;-62
2022/10/18 06:30:09;;;;;;;49.72;32.50;;;;;;;12.79;100.00;102534.94;5052413;28;20033;-63
2022/10/18 06:32:34;;;;;;;56.38;32.40;;;;;;;12.80;100.00;102536.56;5052357;28;20469;-61
2022/10/18 06:35:00;;;;;;;49.22;32.08;;;;;;;12.83;100.00;102539.91;5052148;28;20029;-63
2022/10/18 06:37:28;;;;;;;55.97;31.30;;;;;;;12.80;100.00;102541.31;5052121;28;20147;-63
2022/10/18 06:39:53;;;;;;;50.90;29.95;;;;;;;12.82;100.00;102543.78;5051421;28;20032;-62
2022/10/18 06:42:18;;;;;;;57.75;30.50;;;;;;;12.83;100.00;102543.53;5050060;28;20021;-63
2022/10/18 06:44:44;;;;;;;51.60;31.00;;;;;;;12.83;100.00;102562.97;5050414;28;20039;-62
2022/10/18 06:47:10;;;;;;;73.95;31.83;;;;;;;12.79;100.00;102562.69;5050750;28;20497;-62
2022/10/18 06:49:35;;;;;;;84.05;32.08;;;;;;;12.75;100.00;102577.44;5051103;28;20029;-65
2022/10/18 06:52:01;;;;;;;64.30;30.85;;;;;;;12.74;100.00;102575.75;5051220;28;20021;-63
2022/10/18 06:54:26;;;;;;;91.88;33.10;;;;;;;12.69;100.00;102562.72;5050980;28;20028;-62
2022/10/18 06:56:55;;;;;;;62.47;31.02;;;;;;;12.74;100.00;102573.78;5051937;28;20104;-64
2022/10/18 06:59:20;;;;;;;67.25;30.20;;;;;;;12.79;100.00;102576.59;5051883;28;20033;-62
2022/10/18 07:01:46;;;;;;;81.72;31.50;;;;;;;12.75;100.00;102583.78;5051679;28;20357;-63
2022/10/18 07:04:11;;;;;;;61.67;28.58;;;;;;;12.66;100.00;102598.53;5034228;28;20047;-62
2022/10/18 07:06:36;;;;;;;62.25;29.73;;;;;;;12.62;100.00;102589.91;5051680;28;20460;-59
2022/10/18 07:09:02;;;;;;;71.70;30.00;;;;;;;12.66;100.00;102585.47;5051494;28;20049;-62
2022/10/18 07:11:28;;;;;;;76.80;31.75;;;;;;;12.63;100.00;102586.00;5052037;28;20037;-62
2022/10/18 07:13:59;;;;;;;89.30;31.95;;;;;;;12.58;100.00;102586.03;5051795;28;20033;-61
2022/10/18 07:16:25;;;;;;;80.30;26.23;;;;;;;12.61;100.00;102596.59;5052589;28;20112;-62
2022/10/18 07:18:50;;;;;;;63.08;25.13;;;;;;;12.59;100.00;102607.94;5034676;28;20060;-61
2022/10/18 07:21:18;;;;;;;57.13;24.58;;;;;;;12.56;100.00;102610.44;5035696;28;20025;-61
2022/10/18 07:23:45;;;;;;;50.25;23.27;;;;;;;12.58;100.00;102617.38;5030324;28;20457;-60
2022/10/18 07:26:31;;;;;;;52.63;23.90;;;;;;;12.62;100.00;102612.09;5030552;28;20069;-60
2022/10/18 07:29:08;;;;;;;45.97;23.15;;;;;;;12.68;100.00;102615.72;5039963;28;20029;-60
2022/10/18 07:31:34;;;;;;;43.00;22.48;;;;;;;12.71;100.00;102621.56;5050533;28;20378;-61
2022/10/18 07:34:00;;;;;;;46.00;24.42;;;;;;;12.73;100.00;102633.22;5032568;28;20104;-61
2022/10/18 07:36:25;;;;;;;40.17;22.88;;;;;;;12.78;100.00;102632.38;5049644;28;20029;-62
2022/10/18 07:38:51;;;;;;;42.33;22.45;;;;;;;12.72;100.00;102645.44;5050105;28;20436;-62
2022/10/18 07:41:17;;;;;;;39.45;22.83;;;;;;;12.77;100.00;102644.59;5050160;28;20033;-61
2022/10/18 07:43:45;;;;;;;43.10;21.80;;;;;;;12.75;100.00;102650.44;5049928;28;20036;-61
2022/10/18 07:46:11;;;;;;;34.10;21.63;;;;;;;12.74;100.00;102654.31;5049685;28;20025;-61
2022/10/18 07:48:37;;;;;;;40.10;22.35;;;;;;;12.78;100.00;102654.59;5048518;28;20027;-60
2022/10/18 07:51:03;;;;;;;38.78;23.02;;;;;;;12.77;100.00;102651.00;5050038;28;20025;-60
2022/10/18 07:53:29;;;;;;;34.15;22.73;;;;;;;12.83;100.00;102662.09;5050643;28;20302;-61
2022/10/18 07:56:02;;;;;;;36.58;23.35;;;;;;;12.80;100.00;102656.00;5050321;28;20035;-61
2022/10/18 07:58:29;;;;;;;38.33;23.75;;;;;;;12.93;100.00;102670.44;5050042;28;20037;-60
2022/10/18 08:00:55;;;;;;;38.92;21.98;;;;;;;12.93;100.00;102673.22;5049946;28;20033;-61
2022/10/18 08:03:20;;;;;;;42.30;23.17;;;;;;;13.02;100.00;102670.75;5049685;28;20033;-60
2022/10/18 08:05:53;;;;;;;33.15;22.73;;;;;;;13.13;100.00;102679.88;5050164;28;20175;-60
2022/10/18 08:08:19;;;;;;;33.17;21.88;;;;;;;13.09;100.00;102677.66;5049953;28;20519;-61
2022/10/18 08:10:45;;;;;;;32.75;21.88;;;;;;;13.09;100.00;102683.22;5032005;28;20060;-60
2022/10/18 08:13:10;;;;;;;35.83;21.92;;;;;;;13.10;100.00;102682.09;5050219;28;20071;-62
2022/10/18 08:15:36;;;;;;;33.05;20.65;;;;;;;13.10;100.00;102686.84;5050244;28;20090;-62
2022/10/18 08:18:01;;;;;;;31.85;20.45;;;;;;;13.09;100.00;102694.34;5050018;28;20106;-60
2022/10/18 08:20:26;;;;;;;33.30;21.33;;;;;;;13.07;100.00;102691.03;5031457;28;20194;-61
2022/10/18 08:22:51;;;;;;;35.67;21.52;;;;;;;13.12;100.00;102698.53;5049555;28;20025;-62
2022/10/18 08:25:17;;;;;;;32.63;22.80;;;;;;;13.19;100.00;102696.28;5031501;28;20027;-60
2022/10/18 08:27:42;;;;;;;32.88;22.92;;;;;;;13.28;100.00;102693.75;5048805;28;20043;-60
2022/10/18 08:30:08;;;;;;;33.33;23.13;;;;;;;13.40;100.00;102687.97;5049250;28;20385;-60
2022/10/18 08:32:34;;;;;;;32.75;23.27;;;;;;;13.47;100.00;102696.00;5049251;28;20041;-60
2022/10/18 08:34:59;;;;;;;36.30;23.80;;;;;;;13.49;100.00;102697.41;5049034;28;20025;-60
2022/10/18 08:37:25;;;;;;;34.25;23.33;;;;;;;13.56;100.00;102700.72;5050155;28;20033;-61
2022/10/18 08:39:50;;;;;;;34.60;23.35;;;;;;;13.68;100.00;102700.41;5049733;28;20040;-60
2022/10/18 08:42:36;;;;;;;33.20;23.45;;;;;;;13.68;100.00;102696.81;5050010;28;20033;-61
2022/10/18 08:45:04;;;;;;;35.67;25.15;;;;;;;13.56;100.00;102705.44;5049974;28;20033;-62
2022/10/18 08:47:40;;;;;;;32.47;23.90;;;;;;;13.56;100.00;102709.06;5051923;28;20111;-62
2022/10/18 08:50:13;;;;;;;35.55;24.52;;;;;;;13.56;100.00;102711.84;5052057;28;20029;-62
2022/10/18 08:52:52;;;;;;;35.10;24.02;;;;;;;13.56;100.00;102711.84;5053044;28;20745;-60
2022/10/18 08:55:22;;;;;;;34.80;24.35;;;;;;;13.63;100.00;102711.56;5052863;28;20076;-61
2022/10/18 08:57:49;;;;;;;36.28;25.55;;;;;;;13.67;100.00;102703.47;5052597;28;20390;-61
2022/10/18 09:00:19;;;;;;;36.38;26.02;;;;;;;13.67;100.00;102703.47;5052670;28;20017;-64
2022/10/18 09:02:53;;;;;;;34.47;25.10;;;;;;;13.71;100.00;102704.56;5052887;28;20028;-60
2022/10/18 09:05:25;;;;;;;34.85;25.08;;;;;;;13.75;100.00;102713.16;5053121;28;20047;-60
2022/10/18 09:08:08;;;;;;;35.17;24.52;;;;;;;13.81;100.00;102714.84;5034707;28;20063;-62
2022/10/18 09:10:52;;;;;;;35.95;25.27;;;;;;;13.84;100.00;102717.03;5052537;28;20069;-62
2022/10/18 09:13:36;;;;;;;33.90;24.60;;;;;;;13.89;100.00;102717.88;5051741;28;20469;-60
2022/10/18 09:16:05;;;;;;;35.17;24.48;;;;;;;13.98;100.00;102714.53;5052297;28;20028;-61
2022/10/18 09:18:49;;;;;;;36.97;25.90;;;;;;;14.12;100.00;102723.09;5052271;28;20444;-61
2022/10/18 09:21:39;;;;;;;34.20;24.63;;;;;;;14.09;100.00;102710.56;5052069;28;20116;-61
2022/10/18 09:24:12;;;;;;;33.42;23.73;;;;;;;14.20;100.00;102723.31;5052010;28;20441;-61
2022/10/18 09:26:47;;;;;;;38.88;23.42;;;;;;;14.27;100.00;102720.25;5052262;28;20036;-60
2022/10/18 09:29:37;;;;;;;30.92;20.50;;;;;;;14.31;100.00;102714.94;5051988;28;20487;-61
2022/10/18 09:32:20;;;;;;;29.77;19.35;;;;;;;14.37;100.00;102710.16;5052410;28;20033;-61
2022/10/18 09:34:59;;;;;;;33.33;22.30;;;;;;;14.40;100.00;102715.16;5052190;28;20041;-62
2022/10/18 09:37:29;;;;;;;30.73;19.85;;;;;;;14.36;100.00;102709.31;5052185;28;20025;-61
2022/10/18 09:40:03;;;;;;;30.83;19.77;;;;;;;14.43;100.00;102714.59;5052746;28;20020;-61
2022/10/18 09:42:35;;;;;;;28.52;19.02;;;;;;;14.50;100.00;102718.72;5034633;28;20120;-60
2022/10/18 09:45:12;;;;;;;29.25;18.48;;;;;;;14.53;100.00;102705.34;5052057;28;20071;-60
2022/10/18 09:47:45;;;;;;;28.50;15.98;;;;;;;14.56;100.00;102715.91;5051539;28;20033;-62
2022/10/18 09:50:25;;;;;;;26.98;15.38;;;;;;;14.60;100.00;102719.78;5032544;28;20043;-60
2022/10/18 09:53:12;;;;;;;24.73;14.18;;;;;;;14.61;100.00;102715.88;5050825;28;20029;-60
2022/10/18 09:55:50;;;;;;;23.73;13.13;;;;;;;14.60;100.00;102709.47;5000653;28;20488;-60
2022/10/18 09:58:17;;;;;;;24.05;13.75;;;;;;;14.65;100.00;102717.81;5050645;28;20029;-60
2022/10/18 10:00:48;;;;;;;21.85;12.80;;;;;;;14.65;99.69;102711.38;5051217;28;20108;-61
2022/10/18 10:03:14;;;;;;;22.65;13.18;;;;;;;14.70;100.00;102721.69;5051632;28;20046;-61
2022/10/18 10:05:41;;;;;;;25.08;13.57;;;;;;;14.70;100.00;102722.53;5048425;28;20029;-61
2022/10/18 10:08:06;;;;;;;24.50;14.32;;;;;;;14.75;99.33;102718.88;5041604;28;20069;-61
2022/10/18 10:10:33;;;;;;;22.98;13.40;;;;;;;14.77;100.00;102725.00;5041478;28;20045;-61
2022/10/18 10:13:25;;;;;;;24.42;13.20;;;;;;;14.81;100.00;102712.16;5028324;28;20021;-60
2022/10/18 10:16:00;;;;;;;21.52;12.93;;;;;;;14.82;98.64;102708.25;5051284;28;20044;-60
2022/10/18 10:18:38;;;;;;;22.83;12.40;;;;;;;14.91;96.27;102716.81;5051270;28;20460;-60
2022/10/18 10:21:11;;;;;;;22.58;11.02;;;;;;;14.92;89.86;102726.84;5048647;28;20029;-60
2022/10/18 10:23:44;;;;;;;20.00;10.95;;;;;;;14.93;92.22;102723.78;5029306;28;20021;-61
2022/10/18 10:26:32;;;;;;;21.27;11.07;;;;;;;15.07;92.79;102726.72;5031378;28;20065;-61
2022/10/18 10:28:58;;;;;;;19.85;10.13;;;;;;;15.09;89.37;102718.91;5040631;28;20114;-61
2022/10/18 10:31:23;;;;;;;21.17;11.70;;;;;;;15.11;88.68;102741.72;5050874;28;20025;-60
2022/10/18 10:34:01;;;;;;;19.60;10.50;;;;;;;15.13;87.72;102735.88;5050575;28;20032;-62
2022/10/18 10:36:26;;;;;;;23.17;12.00;;;;;;;15.13;86.09;102739.50;5050715;28;20475;-60
2022/10/18 10:39:22;;;;;;;24.83;11.73;;;;;;;15.22;89.81;102736.06;5050800;28;20029;-60
2022/10/18 10:41:52;;;;;;;20.02;11.18;;;;;;;15.29;86.15;102745.78;5037682;28;20076;-61
2022/10/18 10:44:20;;;;;;;23.45;12.07;;;;;;;15.37;87.20;102751.84;5050160;28;20044;-60
2022/10/18 10:46:47;;;;;;;23.33;11.60;;;;;;;15.35;87.44;102743.78;5050192;28;20028;-61
2022/10/18 10:49:22;;;;;;;22.40;12.52;;;;;;;15.47;87.17;102757.31;5048766;28;20025;-61
2022/10/18 10:52:06;;;;;;;22.65;12.65;;;;;;;15.55;89.58;102753.91;5039366;28;20381;-61
2022/10/18 10:54:35;;;;;;;22.88;11.23;;;;;;;15.60;86.90;102758.59;5040431;28;20036;-60
2022/10/18 10:57:15;;;;;;;21.98;10.38;;;;;;;15.57;80.27;102748.06;5030974;28;20025;-61
2022/10/18 11:00:27;;;;;;;20.90;11.73;;;;;;;15.68;86.60;102754.34;5049793;28;20060;-61
2022/10/18 11:03:05;;;;;;;21.55;12.82;;;;;;;15.77;88.43;102765.72;5049534;28;20039;-60
2022/10/18 11:05:44;;;;;;;24.73;15.23;;;;;;;15.78;87.27;102750.59;5050280;28;20087;-60
2022/10/18 11:08:12;;;;;;;25.20;16.63;;;;;;;15.76;84.69;102753.69;5050478;28;20104;-60
2022/10/18 11:10:52;;;;;;;25.38;13.40;;;;;;;15.78;83.43;102758.97;5049278;28;20118;-60
2022/10/18 11:13:27;;;;;;;26.75;14.90;;;;;;;15.83;84.32;102762.53;5049566;28;20029;-60